createdAt,value
2022-09-16T00:02:12.278Z,2.10
2022-09-16T00:05:01.112Z,3.10
2022-09-16T00:07:49.947Z,2.03
2022-09-16T00:10:40.771Z,2.40
2022-09-16T00:13:29.569Z,2.30
2022-09-16T00:16:19.973Z,3.00
2022-09-16T00:19:08.794Z,2.80
2022-09-16T00:21:57.581Z,1.77
2022-09-16T00:24:46.446Z,1.90
2022-09-16T00:27:36.585Z,2.23
2022-09-16T00:30:25.384Z,1.43
2022-09-16T00:33:14.154Z,2.07
2022-09-16T00:36:06.560Z,1.90
2022-09-16T00:38:55.970Z,2.20
2022-09-16T00:41:44.774Z,1.77
2022-09-16T00:44:52.233Z,1.87
2022-09-16T00:47:43.799Z,1.30
2022-09-16T00:50:38.274Z,1.80
2022-09-16T00:53:29.607Z,1.23
2022-09-16T00:56:22.928Z,1.43
2022-09-16T00:59:14.448Z,1.20
2022-09-16T01:02:06.456Z,1.30
2022-09-16T01:04:58.243Z,1.00
2022-09-16T01:07:47.839Z,1.50
2022-09-16T01:10:36.959Z,1.37
2022-09-16T01:13:25.919Z,1.40
2022-09-16T01:16:18.671Z,1.37
2022-09-16T01:19:15.813Z,2.20
2022-09-16T01:22:12.670Z,1.80
2022-09-16T01:25:04.128Z,1.80
2022-09-16T01:28:00.870Z,2.50
2022-09-16T01:30:57.112Z,2.97
2022-09-16T01:33:52.169Z,2.90
2022-09-16T01:36:45.907Z,2.00
2022-09-16T01:39:41.002Z,2.20
2022-09-16T01:42:32.692Z,1.83
2022-09-16T01:45:24.407Z,2.10
2022-09-16T01:48:19.613Z,2.30
2022-09-16T01:51:11.815Z,2.60
2022-09-16T01:54:04.651Z,3.37
2022-09-16T01:56:55.669Z,2.80
2022-09-16T01:59:46.549Z,2.63
2022-09-16T02:02:38.247Z,2.90
2022-09-16T02:05:30.354Z,2.70
2022-09-16T02:08:21.258Z,2.60
2022-09-16T02:11:11.889Z,2.27
2022-09-16T02:14:04.417Z,2.27
2022-09-16T02:16:56.782Z,2.73
2022-09-16T02:19:47.840Z,2.27
2022-09-16T02:26:30.423Z,2.73
2022-09-16T02:29:21.118Z,2.00
2022-09-16T02:32:10.720Z,2.40
2022-09-16T02:34:59.919Z,2.80
2022-09-16T02:37:50.863Z,2.70
2022-09-16T02:40:43.632Z,3.17
2022-09-16T02:43:34.228Z,2.70
2022-09-16T02:46:26.588Z,3.17
2022-09-16T02:49:18.226Z,3.43
2022-09-16T02:52:10.967Z,3.20
2022-09-16T02:55:04.373Z,2.70
2022-09-16T02:57:53.254Z,3.67
2022-09-16T03:00:46.148Z,2.93
2022-09-16T03:03:34.943Z,2.70
2022-09-16T03:06:24.954Z,3.33
2022-09-16T03:09:14.817Z,3.07
2022-09-16T03:12:08.336Z,3.90
2022-09-16T03:15:09.066Z,3.87
2022-09-16T03:18:10.040Z,2.90
2022-09-16T03:21:01.839Z,3.70
2022-09-16T03:23:57.324Z,2.73
2022-09-16T03:26:49.000Z,2.40
2022-09-16T03:29:43.841Z,2.20
2022-09-16T03:32:35.434Z,2.47
2022-09-16T03:35:28.575Z,2.20
2022-09-16T03:38:18.163Z,2.47
2022-09-16T03:41:08.026Z,2.90
2022-09-16T03:44:01.629Z,2.63
2022-09-16T03:46:52.685Z,3.57
2022-09-16T03:49:41.496Z,3.20
2022-09-16T03:52:31.833Z,3.33
2022-09-16T03:55:20.628Z,2.93
2022-09-16T03:58:09.412Z,3.07
2022-09-16T04:00:58.179Z,3.33
2022-09-16T04:03:46.962Z,3.23
2022-09-16T04:06:35.751Z,3.53
2022-09-16T04:09:25.905Z,2.70
2022-09-16T04:12:14.723Z,2.97
2022-09-16T04:15:03.583Z,3.50
2022-09-16T04:17:52.354Z,3.30
2022-09-16T04:20:42.127Z,3.13
2022-09-16T04:23:31.901Z,3.03
2022-09-16T04:26:22.043Z,2.67
2022-09-16T04:29:11.085Z,3.33
2022-09-16T04:31:59.894Z,3.03
2022-09-16T04:34:48.682Z,3.20
2022-09-16T04:37:37.455Z,2.50
2022-09-16T04:40:26.426Z,2.90
2022-09-16T04:43:16.790Z,2.30
2022-09-16T04:46:05.834Z,2.90
2022-09-16T04:48:55.379Z,3.67
2022-09-16T04:51:44.211Z,2.60
2022-09-16T04:54:32.993Z,3.30
2022-09-16T04:57:21.774Z,2.20
2022-09-16T05:00:12.834Z,3.00
2022-09-16T05:03:01.667Z,5.07
2022-09-16T05:05:50.556Z,3.07
2022-09-16T05:08:39.368Z,3.30
2022-09-16T05:11:29.346Z,3.23
2022-09-16T05:14:19.094Z,4.03
2022-09-16T05:17:09.239Z,3.83
2022-09-16T05:19:58.129Z,3.63
2022-09-16T05:22:46.968Z,2.90
2022-09-16T05:25:35.781Z,2.70
2022-09-16T05:28:24.641Z,2.90
2022-09-16T05:31:15.008Z,2.47
2022-09-16T05:34:06.454Z,2.07
2022-09-16T05:36:55.368Z,3.00
2022-09-16T05:39:44.325Z,3.17
2022-09-16T05:42:33.098Z,2.10
2022-09-16T05:45:26.589Z,2.40
2022-09-16T05:48:17.594Z,3.10
2022-09-16T05:51:08.436Z,1.93
2022-09-16T05:53:57.228Z,1.43
2022-09-16T05:56:46.093Z,1.30
2022-09-16T05:59:35.495Z,1.00
2022-09-16T06:02:24.786Z,1.00
2022-09-16T06:05:13.623Z,0.83
2022-09-16T06:08:03.939Z,1.00
2022-09-16T06:10:52.753Z,1.30
2022-09-16T06:13:41.799Z,1.20
2022-09-16T06:16:32.847Z,1.63
2022-09-16T06:19:21.647Z,0.90
2022-09-16T06:22:10.439Z,1.10
2022-09-16T06:25:00.561Z,1.40
2022-09-16T06:27:49.429Z,2.53
2022-09-16T06:30:38.232Z,1.27
2022-09-16T06:33:27.255Z,1.00
2022-09-16T06:36:17.720Z,1.63
2022-09-16T06:39:06.889Z,1.40
2022-09-16T06:41:57.033Z,2.30
2022-09-16T06:44:45.942Z,1.43
2022-09-16T06:47:34.891Z,2.00
2022-09-16T06:50:23.655Z,1.63
2022-09-16T06:53:12.434Z,1.97
2022-09-16T06:56:02.624Z,1.60
2022-09-16T06:58:55.525Z,3.30
2022-09-16T07:01:44.385Z,1.80
2022-09-16T07:04:33.187Z,2.10
2022-09-16T07:07:21.953Z,2.27
2022-09-16T07:10:11.294Z,4.20
2022-09-16T07:13:00.081Z,4.57
2022-09-16T07:16:11.859Z,2.17
2022-09-16T07:19:01.112Z,2.57
2022-09-16T07:21:50.222Z,2.43
2022-09-16T07:24:39.079Z,2.20
2022-09-16T07:27:28.143Z,2.40
2022-09-16T07:30:17.178Z,2.37
2022-09-16T07:33:07.303Z,1.80
2022-09-16T07:35:59.291Z,1.47
2022-09-16T07:38:48.609Z,1.60
2022-09-16T07:41:38.371Z,1.30
2022-09-16T07:44:27.655Z,1.50
2022-09-16T07:47:21.414Z,1.17
2022-09-16T07:50:12.609Z,1.47
2022-09-16T07:53:01.448Z,2.20
2022-09-16T07:55:50.266Z,2.00
2022-09-16T07:58:39.149Z,1.70
2022-09-16T08:01:28.187Z,1.30
2022-09-16T08:04:17.877Z,1.33
2022-09-16T08:07:08.516Z,1.00
2022-09-16T08:09:57.678Z,1.40
2022-09-16T08:12:48.258Z,0.98
2022-09-16T08:15:37.271Z,1.00
2022-09-16T08:18:26.165Z,1.40
2022-09-16T08:21:15.851Z,1.70
2022-09-16T08:24:06.266Z,1.42
2022-09-16T08:29:48.895Z,2.20
2022-09-16T08:32:37.723Z,1.80
2022-09-16T08:35:26.870Z,1.52
2022-09-16T08:38:15.883Z,1.88
2022-09-16T08:41:08.107Z,1.60
2022-09-16T08:44:00.920Z,1.77
2022-09-16T08:46:52.592Z,1.10
2022-09-16T08:49:45.654Z,1.38
2022-09-16T08:52:36.993Z,1.25
2022-09-16T08:55:31.321Z,1.30
2022-09-16T08:58:22.836Z,1.50
2022-09-16T09:01:17.401Z,1.60
2022-09-16T09:04:06.297Z,1.10
2022-09-16T09:07:01.266Z,1.08
2022-09-16T09:09:56.008Z,1.10
2022-09-16T09:12:48.241Z,1.35
2022-09-16T09:15:43.149Z,1.15
2022-09-16T09:18:36.824Z,1.10
2022-09-16T09:21:28.372Z,1.63
2022-09-16T09:24:31.789Z,1.38
2022-09-16T09:27:24.623Z,1.10
2022-09-16T09:30:16.713Z,1.55
2022-09-16T09:33:34.302Z,0.82
2022-09-16T09:36:29.118Z,1.10
2022-09-16T09:39:32.811Z,1.02
2022-09-16T09:42:23.370Z,1.02
2022-09-16T09:45:18.212Z,1.10
2022-09-16T09:48:20.221Z,0.73
2022-09-16T09:51:15.514Z,0.80
2022-09-16T09:54:07.509Z,0.83
2022-09-16T09:56:59.021Z,0.90
2022-09-16T09:59:50.449Z,1.07
2022-09-16T10:02:41.320Z,0.97
2022-09-16T10:05:31.710Z,0.83
2022-09-16T10:08:24.546Z,0.68
2022-09-16T10:11:17.939Z,1.08
2022-09-16T10:14:06.726Z,0.90
2022-09-16T10:16:56.647Z,1.10
2022-09-16T10:19:52.383Z,1.20
2022-09-16T10:22:41.220Z,0.93
2022-09-16T10:25:32.124Z,1.23
2022-09-16T10:28:21.952Z,0.90
2022-09-16T10:31:12.629Z,1.23
2022-09-16T10:34:01.980Z,0.85
2022-09-16T10:37:00.530Z,0.85
2022-09-16T10:39:53.228Z,1.40
2022-09-16T10:42:48.072Z,0.83
2022-09-16T10:45:37.841Z,1.00
2022-09-16T10:48:28.266Z,0.60
2022-09-16T10:51:24.515Z,0.90
2022-09-16T10:54:24.865Z,1.10
2022-09-16T10:57:22.422Z,0.70
2022-09-16T11:00:15.993Z,0.77
2022-09-16T11:03:19.663Z,0.83
2022-09-16T11:06:13.426Z,0.93
2022-09-16T11:09:07.509Z,1.00
2022-09-16T11:12:11.041Z,1.30
2022-09-16T11:15:01.741Z,0.93
2022-09-16T11:17:58.060Z,1.00
2022-09-16T11:20:58.815Z,0.83
2022-09-16T11:23:52.997Z,3.30
2022-09-16T11:26:46.305Z,0.80
2022-09-16T11:29:48.243Z,1.30
2022-09-16T11:32:48.814Z,0.93
2022-09-16T11:35:43.357Z,0.80
2022-09-16T11:38:42.375Z,1.03
2022-09-16T11:41:37.054Z,0.80
2022-09-16T11:44:32.120Z,1.10
2022-09-16T11:47:31.847Z,1.00
2022-09-16T11:50:24.547Z,1.43
2022-09-16T11:55:27.216Z,1.20
2022-09-16T11:58:22.239Z,1.13
2022-09-16T12:01:14.752Z,2.00
2022-09-16T12:04:06.831Z,1.10
2022-09-16T12:06:57.688Z,1.03
2022-09-16T12:09:48.861Z,1.03
2022-09-16T12:12:40.559Z,1.43
2022-09-16T12:15:30.205Z,1.10
2022-09-16T12:18:20.348Z,2.17
2022-09-16T12:21:10.981Z,2.73
2022-09-16T12:24:01.650Z,2.80
2022-09-16T12:26:53.054Z,2.27
2022-09-16T12:29:46.850Z,2.40
2022-09-16T12:32:38.749Z,2.87
2022-09-16T12:38:23.754Z,0.90
2022-09-16T12:41:26.755Z,1.47
2022-09-16T12:44:40.616Z,0.97
2022-09-16T12:47:40.971Z,0.87
2022-09-16T12:50:43.591Z,1.40
2022-09-16T12:53:50.598Z,1.43
2022-09-16T12:56:46.999Z,0.93
2022-09-16T12:59:44.108Z,0.80
2022-09-16T13:02:37.716Z,1.00
2022-09-16T13:05:32.551Z,1.10
2022-09-16T13:08:23.527Z,0.67
2022-09-16T13:12:05.443Z,0.90
2022-09-16T13:14:35.377Z,0.85
2022-09-16T13:17:31.565Z,0.82
2022-09-16T13:20:23.163Z,0.90
2022-09-16T13:23:14.873Z,0.80
2022-09-16T13:26:06.941Z,0.80
2022-09-16T13:28:57.821Z,1.40
2022-09-16T13:31:49.437Z,0.82
2022-09-16T13:34:38.310Z,0.80
2022-09-16T13:37:28.724Z,0.95
2022-09-16T13:40:19.587Z,0.75
2022-09-16T13:43:15.047Z,1.00
2022-09-16T13:46:05.490Z,0.70
2022-09-16T13:48:57.118Z,1.53
2022-09-16T13:51:47.625Z,1.40
2022-09-16T13:55:06.200Z,1.10
2022-09-16T13:58:02.337Z,1.13
2022-09-16T14:00:58.554Z,1.80
2022-09-16T14:03:51.254Z,0.83
2022-09-16T14:06:49.421Z,1.10
2022-09-16T14:09:50.482Z,1.70
2022-09-16T14:12:46.607Z,0.90
2022-09-16T14:15:37.278Z,1.20
2022-09-16T14:18:27.615Z,0.95
2022-09-16T14:21:20.654Z,1.20
2022-09-16T14:24:13.905Z,0.98
2022-09-16T14:27:04.041Z,1.02
2022-09-16T14:29:56.655Z,1.15
2022-09-16T14:32:45.622Z,1.10
2022-09-16T14:35:35.270Z,1.00
2022-09-16T14:38:44.527Z,1.02
2022-09-16T14:41:36.822Z,1.23
2022-09-16T14:44:28.644Z,1.40
2022-09-16T14:47:30.787Z,1.05
2022-09-16T14:50:30.129Z,1.08
2022-09-16T14:53:35.718Z,1.50
2022-09-16T14:56:25.694Z,1.35
2022-09-16T14:59:15.200Z,1.92
2022-09-16T15:02:06.885Z,1.58
2022-09-16T15:04:58.927Z,1.48
2022-09-16T15:08:12.268Z,1.10
2022-09-16T15:10:58.706Z,1.83
2022-09-16T15:13:48.962Z,1.10
2022-09-16T15:16:41.789Z,1.48
2022-09-16T15:19:35.650Z,1.40
2022-09-16T15:22:24.875Z,0.97
2022-09-16T15:25:20.718Z,1.00
2022-09-16T15:28:16.953Z,1.57
2022-09-16T15:31:08.035Z,1.30
2022-09-16T15:33:57.458Z,2.07
2022-09-16T15:36:48.242Z,1.30
2022-09-16T15:39:38.119Z,1.40
2022-09-16T15:42:26.976Z,1.67
2022-09-16T15:45:18.435Z,2.17
2022-09-16T15:48:08.247Z,2.27
2022-09-16T15:50:58.426Z,2.17
2022-09-16T15:53:49.197Z,2.50
2022-09-16T15:56:44.433Z,2.30
2022-09-16T15:59:34.966Z,2.20
2022-09-16T16:02:25.507Z,2.40
2022-09-16T16:05:16.125Z,2.77
2022-09-16T16:08:09.839Z,2.10
2022-09-16T16:11:08.954Z,2.13
2022-09-16T16:14:01.781Z,1.37
2022-09-16T16:17:11.679Z,1.33
2022-09-16T16:19:59.723Z,1.40
2022-09-16T16:22:49.064Z,1.67
2022-09-16T16:25:38.069Z,1.40
2022-09-16T16:28:28.215Z,1.73
2022-09-16T16:31:18.336Z,2.13
2022-09-16T16:34:07.351Z,1.47
2022-09-16T16:36:56.147Z,1.47
2022-09-16T16:39:45.334Z,1.40
2022-09-16T16:42:34.669Z,1.73
2022-09-16T16:45:24.797Z,1.30
2022-09-16T16:48:13.581Z,1.00
2022-09-16T16:51:03.534Z,1.20
2022-09-16T16:53:52.998Z,1.10
2022-09-16T16:56:42.252Z,1.30
2022-09-16T16:59:31.378Z,1.37
2022-09-16T17:02:21.611Z,1.10
2022-09-16T17:05:10.812Z,1.80
2022-09-16T17:07:59.612Z,1.20
2022-09-16T17:10:48.507Z,1.20
2022-09-16T17:13:37.468Z,1.13
2022-09-16T17:16:26.378Z,1.33
2022-09-16T17:19:17.277Z,1.50
2022-09-16T17:22:06.102Z,1.27
2022-09-16T17:24:54.872Z,1.10
2022-09-16T17:27:43.650Z,1.40
2022-09-16T17:30:32.461Z,1.50
2022-09-16T17:33:21.250Z,1.30
2022-09-16T17:36:12.288Z,1.47
2022-09-16T17:39:01.909Z,1.57
2022-09-16T17:41:51.155Z,1.67
2022-09-16T17:44:40.003Z,2.33
2022-09-16T17:47:28.802Z,1.70
2022-09-16T17:50:22.743Z,1.67
2022-09-16T17:53:13.187Z,1.63
2022-09-16T17:56:05.798Z,1.30
2022-09-16T17:58:55.123Z,2.10
2022-09-16T18:01:45.077Z,1.73
2022-09-16T18:04:33.910Z,1.67
2022-09-16T18:07:22.725Z,2.53
2022-09-16T18:10:12.837Z,3.20
2022-09-16T18:13:02.808Z,3.40
2022-09-16T18:15:51.614Z,2.63
2022-09-16T18:18:41.695Z,2.10
2022-09-16T18:21:31.265Z,2.77
2022-09-16T18:24:20.273Z,2.33
2022-09-16T18:27:10.427Z,2.80
2022-09-16T18:30:00.523Z,2.83
2022-09-16T18:32:50.220Z,2.80
2022-09-16T18:35:38.990Z,3.90
2022-09-16T18:38:27.781Z,3.50
2022-09-16T18:41:18.558Z,2.73
2022-09-16T18:44:12.215Z,2.53
2022-09-16T18:47:01.354Z,3.07
2022-09-16T18:49:50.136Z,3.43
2022-09-16T18:52:38.969Z,3.07
2022-09-16T18:55:27.791Z,3.27
2022-09-16T18:58:16.618Z,3.03
2022-09-16T19:01:09.546Z,2.33
2022-09-16T19:03:59.405Z,2.50
2022-09-16T19:06:48.941Z,2.40
2022-09-16T19:09:39.600Z,2.80
2022-09-16T19:12:28.389Z,3.40
2022-09-16T19:15:17.288Z,2.33
2022-09-16T19:18:07.896Z,3.10
2022-09-16T19:20:56.770Z,2.37
2022-09-16T19:23:46.838Z,1.80
2022-09-16T19:26:36.660Z,2.60
2022-09-16T19:29:25.751Z,1.60
2022-09-16T19:32:14.933Z,2.30
2022-09-16T19:35:05.346Z,1.90
2022-09-16T19:37:54.163Z,2.27
2022-09-16T19:40:43.646Z,1.90
2022-09-16T19:43:32.543Z,1.53
2022-09-16T19:46:22.174Z,1.30
2022-09-16T19:49:12.701Z,1.60
2022-09-16T19:52:03.075Z,1.90
2022-09-16T19:54:52.006Z,1.63
2022-09-16T19:57:40.938Z,1.90
2022-09-16T20:00:46.874Z,2.03
2022-09-16T20:03:39.463Z,1.53
2022-09-16T20:06:29.903Z,1.50
2022-09-16T20:09:20.697Z,1.60
2022-09-16T20:12:09.537Z,2.20
2022-09-16T20:14:59.120Z,1.73
2022-09-16T20:17:47.955Z,1.90
2022-09-16T20:20:36.752Z,2.30
2022-09-16T20:23:26.158Z,2.50
2022-09-16T20:26:19.498Z,1.83
2022-09-16T20:29:08.381Z,2.20
2022-09-16T20:31:57.305Z,1.70
2022-09-16T20:34:46.109Z,1.90
2022-09-16T20:37:34.891Z,1.67
2022-09-16T20:40:23.720Z,2.30
2022-09-16T20:43:13.971Z,1.37
2022-09-16T20:46:06.377Z,2.33
2022-09-16T20:48:55.687Z,2.13
2022-09-16T20:51:44.494Z,3.03
2022-09-16T20:54:33.353Z,2.63
2022-09-16T20:57:22.106Z,2.07
2022-09-16T21:00:13.179Z,2.50
2022-09-16T21:03:01.970Z,2.30
2022-09-16T21:05:50.855Z,3.07
2022-09-16T21:08:39.834Z,2.30
2022-09-16T21:11:29.723Z,2.40
2022-09-16T21:14:21.556Z,2.60
2022-09-16T21:17:11.731Z,2.07
2022-09-16T21:20:00.563Z,2.03
2022-09-16T21:22:49.379Z,1.87
2022-09-16T21:25:38.207Z,1.80
2022-09-16T21:28:26.982Z,1.63
2022-09-16T21:31:16.436Z,1.83
2022-09-16T21:34:07.153Z,2.43
2022-09-16T21:36:58.789Z,2.10
2022-09-16T21:39:47.591Z,3.03
2022-09-16T21:42:36.452Z,1.43
2022-09-16T21:45:25.262Z,2.33
2022-09-16T21:48:16.050Z,1.70
2022-09-16T21:51:07.124Z,2.47
2022-09-16T21:53:56.707Z,2.70
2022-09-16T21:56:45.505Z,1.40
2022-09-16T21:59:34.281Z,1.97
2022-09-16T22:02:23.081Z,2.10
2022-09-16T22:05:11.877Z,2.10
2022-09-16T22:08:02.560Z,1.70
2022-09-16T22:10:51.632Z,2.80
2022-09-16T22:13:40.647Z,1.83
2022-09-16T22:16:30.083Z,2.50
2022-09-16T22:19:20.127Z,1.90
2022-09-16T22:22:08.904Z,2.17
2022-09-16T22:24:59.129Z,2.17
2022-09-16T22:27:47.905Z,1.93
2022-09-16T22:30:36.715Z,3.03
2022-09-16T22:33:25.482Z,1.90
2022-09-16T22:36:15.190Z,2.70
2022-09-16T22:39:05.913Z,2.40
2022-09-16T22:41:56.644Z,2.53
2022-09-16T22:44:45.437Z,4.43
2022-09-16T22:47:34.218Z,2.50
2022-09-16T22:50:23.091Z,2.30
2022-09-16T22:53:11.858Z,2.13
2022-09-16T22:56:01.639Z,2.90
2022-09-16T22:58:54.573Z,2.60
2022-09-16T23:01:43.379Z,2.70
2022-09-16T23:04:32.288Z,2.50
2022-09-16T23:07:21.186Z,2.20
2022-09-16T23:10:10.864Z,3.47
2022-09-16T23:12:59.719Z,2.47
2022-09-16T23:15:53.618Z,2.30
2022-09-16T23:18:42.944Z,2.20
2022-09-16T23:21:31.920Z,2.20
2022-09-16T23:24:21.738Z,3.20
2022-09-16T23:27:10.541Z,2.47
2022-09-16T23:29:59.564Z,2.10
2022-09-16T23:32:49.797Z,2.33
2022-09-16T23:35:38.554Z,2.40
2022-09-16T23:38:27.449Z,2.57
2022-09-16T23:41:18.289Z,3.00
2022-09-16T23:44:07.259Z,1.87
2022-09-16T23:46:56.070Z,2.93
2022-09-16T23:49:46.283Z,2.60
2022-09-16T23:52:35.461Z,1.87
2022-09-16T23:55:24.234Z,2.10
2022-09-16T23:58:13.354Z,2.10
